createdAt,value
2019-03-13T00:00:56.673Z,63.10
2019-03-13T00:03:31.185Z,63.20
2019-03-13T00:06:06.034Z,63.30
2019-03-13T00:08:41.074Z,63.40
2019-03-13T00:11:16.156Z,63.50
2019-03-13T00:13:50.843Z,63.70
2019-03-13T00:16:25.648Z,63.70
2019-03-13T00:19:00.383Z,63.80
2019-03-13T00:21:35.691Z,64.10
2019-03-13T00:24:17.788Z,64.20
2019-03-13T00:26:52.603Z,64.30
2019-03-13T00:29:27.260Z,65.20
2019-03-13T00:32:03.115Z,64.60
2019-03-13T00:34:38.237Z,64.70
2019-03-13T00:37:12.908Z,64.90
2019-03-13T00:39:47.409Z,65.00
2019-03-13T00:42:22.266Z,65.10
2019-03-13T00:44:57.054Z,65.20
2019-03-13T00:47:38.286Z,65.30
2019-03-13T00:50:14.090Z,65.30
2019-03-13T00:52:55.239Z,65.40
2019-03-13T00:55:30.013Z,65.50
2019-03-13T00:58:04.937Z,65.50
2019-03-13T01:01:01.431Z,65.50
2019-03-13T01:03:47.519Z,65.40
2019-03-13T01:06:25.611Z,65.40
2019-03-13T01:09:00.606Z,65.50
2019-03-13T01:11:35.268Z,65.30
2019-03-13T01:14:09.941Z,65.40
2019-03-13T01:16:44.809Z,65.40
2019-03-13T01:19:19.805Z,65.40
2019-03-13T01:21:54.229Z,65.30
2019-03-13T01:24:29.456Z,65.30
2019-03-13T01:27:04.594Z,65.30
2019-03-13T01:29:39.563Z,65.20
2019-03-13T01:32:37.935Z,65.20
2019-03-13T01:35:34.192Z,65.10
2019-03-13T01:38:08.304Z,65.10
2019-03-13T01:40:43.003Z,65.00
2019-03-13T01:43:18.720Z,65.00
2019-03-13T01:45:52.680Z,65.00
2019-03-13T01:48:27.475Z,65.00
2019-03-13T01:51:02.105Z,64.90
2019-03-13T01:53:36.995Z,64.80
2019-03-13T01:56:12.298Z,64.70
2019-03-13T01:58:48.040Z,65.60
2019-03-13T02:01:22.811Z,64.50
2019-03-13T02:03:57.290Z,64.50
2019-03-13T02:06:32.305Z,64.40
2019-03-13T02:09:07.592Z,64.20
2019-03-13T02:11:42.326Z,64.10
2019-03-13T02:14:17.070Z,64.10
2019-03-13T02:16:51.792Z,63.90
2019-03-13T02:19:26.551Z,63.90
2019-03-13T02:22:01.131Z,63.80
2019-03-13T02:24:35.752Z,63.80
2019-03-13T02:27:10.828Z,63.60
2019-03-13T02:29:45.636Z,64.10
2019-03-13T02:32:20.705Z,63.50
2019-03-13T02:34:55.455Z,63.40
2019-03-13T02:37:29.964Z,63.20
2019-03-13T02:40:04.663Z,63.20
2019-03-13T02:42:39.337Z,63.20
2019-03-13T02:45:15.416Z,63.10
2019-03-13T02:47:57.493Z,63.00
2019-03-13T02:50:32.207Z,62.90
2019-03-13T02:53:06.725Z,62.60
2019-03-13T02:55:41.040Z,62.50
2019-03-13T02:58:16.708Z,62.50
2019-03-13T03:00:58.832Z,62.60
2019-03-13T03:03:36.292Z,62.40
2019-03-13T03:06:11.103Z,62.40
2019-03-13T03:08:45.423Z,62.10
2019-03-13T03:11:21.018Z,62.00
2019-03-13T03:13:55.628Z,62.00
2019-03-13T03:16:37.291Z,62.10
2019-03-13T03:19:12.115Z,62.00
2019-03-13T03:21:46.867Z,61.90
2019-03-13T03:24:21.668Z,61.70
2019-03-13T03:26:56.329Z,61.50
2019-03-13T03:29:30.933Z,61.50
2019-03-13T03:32:12.534Z,61.40
2019-03-13T03:34:47.271Z,61.20
2019-03-13T03:37:22.148Z,61.20
2019-03-13T03:39:56.801Z,61.10
2019-03-13T03:42:31.857Z,60.60
2019-03-13T03:45:06.192Z,61.20
2019-03-13T03:47:40.806Z,60.10
2019-03-13T03:50:16.130Z,60.00
2019-03-13T03:52:50.667Z,59.80
2019-03-13T03:55:25.277Z,59.70
2019-03-13T03:58:07.176Z,59.70
2019-03-13T04:00:41.950Z,60.10
2019-03-13T04:03:23.998Z,59.50
2019-03-13T04:05:58.601Z,59.30
2019-03-13T04:08:37.580Z,59.00
2019-03-13T04:11:09.793Z,58.80
2019-03-13T04:13:57.543Z,58.60
2019-03-13T04:16:32.488Z,58.50
2019-03-13T04:19:07.487Z,58.40
2019-03-13T04:21:42.250Z,58.20
2019-03-13T04:24:24.124Z,58.10
2019-03-13T04:26:58.638Z,57.80
2019-03-13T04:29:33.822Z,57.50
2019-03-13T04:32:08.677Z,57.30
2019-03-13T04:34:49.979Z,57.10
2019-03-13T04:37:24.899Z,57.00
2019-03-13T04:39:59.754Z,57.10
2019-03-13T04:42:35.256Z,57.10
2019-03-13T04:45:10.065Z,57.10
2019-03-13T04:47:45.363Z,57.10
2019-03-13T04:50:20.083Z,57.20
2019-03-13T04:52:54.877Z,57.20
2019-03-13T04:55:29.536Z,57.20
2019-03-13T04:58:11.236Z,57.30
2019-03-13T05:00:46.214Z,57.30
2019-03-13T05:03:21.771Z,57.30
2019-03-13T05:06:09.211Z,57.40
2019-03-13T05:09:06.421Z,57.20
2019-03-13T05:11:41.504Z,56.10
2019-03-13T05:14:16.591Z,54.90
2019-03-13T05:16:51.060Z,54.00
2019-03-13T05:19:25.454Z,53.40
2019-03-13T05:22:00.128Z,53.00
2019-03-13T05:24:34.987Z,52.60
2019-03-13T05:27:09.961Z,52.00
2019-03-13T05:29:44.686Z,51.30
2019-03-13T05:32:19.561Z,51.10
2019-03-13T05:34:54.390Z,50.90
2019-03-13T05:37:29.113Z,50.60
2019-03-13T05:40:03.590Z,50.60
2019-03-13T05:42:38.295Z,50.40
2019-03-13T05:45:12.895Z,50.40
2019-03-13T05:47:47.952Z,50.30
2019-03-13T05:50:22.749Z,49.90
2019-03-13T05:52:57.408Z,49.80
2019-03-13T05:55:31.927Z,49.60
2019-03-13T05:58:06.642Z,49.40
2019-03-13T06:00:41.743Z,49.10
2019-03-13T06:03:16.173Z,49.10
2019-03-13T06:05:51.411Z,49.10
2019-03-13T06:08:26.261Z,49.00
2019-03-13T06:11:00.715Z,49.00
2019-03-13T06:13:36.007Z,48.90
2019-03-13T06:16:11.886Z,48.90
2019-03-13T06:18:47.273Z,49.10
2019-03-13T06:21:22.000Z,49.00
2019-03-13T06:24:01.250Z,48.70
2019-03-13T06:26:35.970Z,48.40
2019-03-13T06:29:10.883Z,48.30
2019-03-13T06:31:45.645Z,48.60
2019-03-13T06:34:20.038Z,47.70
2019-03-13T06:36:54.714Z,47.50
2019-03-13T06:39:31.934Z,47.40
2019-03-13T06:42:05.698Z,47.20
2019-03-13T06:44:40.391Z,47.10
2019-03-13T06:47:15.141Z,47.20
2019-03-13T06:49:50.058Z,47.10
2019-03-13T06:52:25.021Z,47.00
2019-03-13T06:54:59.781Z,47.30
2019-03-13T06:57:34.370Z,47.60
2019-03-13T07:00:26.875Z,47.80
2019-03-13T07:03:25.814Z,48.00
2019-03-13T07:06:15.196Z,48.20
2019-03-13T07:09:08.872Z,48.40
2019-03-13T07:11:54.436Z,48.70
2019-03-13T07:14:38.309Z,48.70
2019-03-13T07:17:30.086Z,48.70
2019-03-13T07:20:23.000Z,48.70
2019-03-13T07:23:06.410Z,48.80
2019-03-13T07:25:56.035Z,48.90
2019-03-13T07:29:11.625Z,48.90
2019-03-13T07:31:47.127Z,48.80
2019-03-13T07:34:43.688Z,48.80
2019-03-13T07:40:46.430Z,48.80
2019-03-13T07:43:48.562Z,48.90
2019-03-13T07:46:39.372Z,48.80
2019-03-13T07:49:44.688Z,48.70
2019-03-13T07:52:56.025Z,48.70
2019-03-13T07:55:47.801Z,48.60
2019-03-13T07:58:35.159Z,48.60
2019-03-13T08:01:28.247Z,48.70
2019-03-13T08:04:30.800Z,48.60
2019-03-13T08:07:23.954Z,48.50
2019-03-13T08:10:16.534Z,48.40
2019-03-13T08:13:10.051Z,48.30
2019-03-13T08:16:12.034Z,48.30
2019-03-13T08:19:15.005Z,48.30
2019-03-13T08:22:13.429Z,47.90
2019-03-13T08:24:55.392Z,47.40
2019-03-13T08:27:47.041Z,47.00
2019-03-13T08:30:32.854Z,46.50
2019-03-13T08:33:23.456Z,46.10
2019-03-13T08:36:31.868Z,45.60
2019-03-13T08:39:23.390Z,45.20
2019-03-13T08:42:31.704Z,45.10
2019-03-13T08:45:30.567Z,44.70
2019-03-13T08:48:20.949Z,44.70
2019-03-13T08:51:04.746Z,44.50
2019-03-13T08:54:03.988Z,44.30
2019-03-13T08:56:45.563Z,44.20
2019-03-13T08:59:39.110Z,44.20
2019-03-13T09:02:24.064Z,44.00
2019-03-13T09:05:06.819Z,43.80
2019-03-13T09:08:09.643Z,43.80
2019-03-13T09:11:09.052Z,44.40
2019-03-13T09:14:05.567Z,44.30
2019-03-13T09:17:04.443Z,44.10
2019-03-13T09:20:06.600Z,43.60
2019-03-13T09:23:02.523Z,43.40
2019-03-13T09:25:55.459Z,43.20
2019-03-13T09:28:47.263Z,42.90
2019-03-13T09:31:46.770Z,42.70
2019-03-13T09:34:45.471Z,42.50
2019-03-13T09:37:37.860Z,42.50
2019-03-13T09:40:30.102Z,42.30
2019-03-13T09:43:29.850Z,43.20
2019-03-13T09:46:32.255Z,43.70
2019-03-13T09:49:37.379Z,43.60
2019-03-13T09:52:33.904Z,43.50
2019-03-13T09:55:45.760Z,43.30
2019-03-13T09:58:38.667Z,43.00
2019-03-13T10:01:35.454Z,42.70
2019-03-13T10:04:29.215Z,42.50
2019-03-13T10:07:11.247Z,42.30
2019-03-13T10:10:05.994Z,42.10
2019-03-13T10:13:17.955Z,42.00
2019-03-13T10:16:13.416Z,41.90
2019-03-13T10:19:04.560Z,41.80
2019-03-13T10:21:52.702Z,41.70
2019-03-13T10:24:46.838Z,41.60
2019-03-13T10:27:49.122Z,41.60
2019-03-13T10:30:48.513Z,41.60
2019-03-13T10:33:53.585Z,41.50
2019-03-13T10:36:36.756Z,41.80
2019-03-13T10:39:31.027Z,42.00
2019-03-13T10:42:35.949Z,42.20
2019-03-13T10:45:32.134Z,42.40
2019-03-13T10:48:24.533Z,42.60
2019-03-13T10:51:25.845Z,43.10
2019-03-13T10:54:09.621Z,45.30
2019-03-13T10:57:02.681Z,46.30
2019-03-13T11:00:10.368Z,46.90
2019-03-13T11:03:03.052Z,47.70
2019-03-13T11:05:59.753Z,48.10
2019-03-13T11:08:43.666Z,48.60
2019-03-13T11:11:23.786Z,48.80
2019-03-13T11:14:16.239Z,49.80
2019-03-13T11:17:00.362Z,49.40
2019-03-13T11:19:55.702Z,49.50
2019-03-13T11:22:49.163Z,49.90
2019-03-13T11:25:40.456Z,48.90
2019-03-13T11:28:32.180Z,47.70
2019-03-13T11:31:28.180Z,46.70
2019-03-13T11:34:14.073Z,46.00
2019-03-13T11:37:15.919Z,45.30
2019-03-13T11:40:12.018Z,44.70
2019-03-13T11:43:11.548Z,44.30
2019-03-13T11:45:57.482Z,43.90
2019-03-13T11:48:53.220Z,43.70
2019-03-13T11:51:44.816Z,43.60
2019-03-13T11:54:28.034Z,43.80
2019-03-13T11:57:12.839Z,45.40
2019-03-13T12:00:04.092Z,46.80
2019-03-13T12:03:03.909Z,46.90
2019-03-13T12:05:51.232Z,47.30
2019-03-13T12:08:47.264Z,48.50
2019-03-13T12:11:38.015Z,49.10
2019-03-13T12:14:37.413Z,48.50
2019-03-13T12:17:40.816Z,49.30
2019-03-13T12:20:42.832Z,49.10
2019-03-13T12:23:42.224Z,49.10
2019-03-13T12:26:31.169Z,49.90
2019-03-13T12:29:29.845Z,49.70
2019-03-13T12:32:15.098Z,49.60
2019-03-13T12:35:09.818Z,50.40
2019-03-13T12:38:07.978Z,50.20
2019-03-13T12:41:04.230Z,49.90
2019-03-13T12:43:55.577Z,50.60
2019-03-13T12:46:48.702Z,50.70
2019-03-13T12:49:47.398Z,50.40
2019-03-13T12:52:49.887Z,51.10
2019-03-13T12:55:55.471Z,51.30
2019-03-13T12:58:46.773Z,51.00
2019-03-13T13:01:42.942Z,51.60
2019-03-13T13:04:36.088Z,52.20
2019-03-13T13:07:41.462Z,52.80
2019-03-13T13:10:55.582Z,53.30
2019-03-13T13:13:48.653Z,53.60
2019-03-13T13:16:53.468Z,53.90
2019-03-13T13:19:28.324Z,54.40
2019-03-13T13:22:10.293Z,54.60
2019-03-13T13:24:44.663Z,54.80
2019-03-13T13:27:19.337Z,55.00
2019-03-13T13:29:54.169Z,55.10
2019-03-13T13:32:35.938Z,56.00
2019-03-13T13:35:11.749Z,55.40
2019-03-13T13:37:45.904Z,55.50
2019-03-13T13:40:20.556Z,55.60
2019-03-13T13:42:55.640Z,55.70
2019-03-13T13:45:46.147Z,55.80
2019-03-13T13:48:21.138Z,55.90
2019-03-13T13:50:55.990Z,56.00
2019-03-13T13:53:31.242Z,56.20
2019-03-13T13:56:06.130Z,56.30
2019-03-13T13:58:41.175Z,56.40
2019-03-13T14:01:15.974Z,56.40
2019-03-13T14:03:57.684Z,56.50
2019-03-13T14:06:32.327Z,56.50
2019-03-13T14:09:14.687Z,56.50
2019-03-13T14:11:49.566Z,56.60
2019-03-13T14:14:24.382Z,56.70
2019-03-13T14:16:59.866Z,56.80
2019-03-13T14:19:35.440Z,56.80
2019-03-13T14:22:09.907Z,56.80
2019-03-13T14:24:44.726Z,56.80
2019-03-13T14:27:19.584Z,57.00
2019-03-13T14:30:01.437Z,57.00
2019-03-13T14:32:36.056Z,57.10
2019-03-13T14:35:11.129Z,57.00
2019-03-13T14:37:45.912Z,57.10
2019-03-13T14:40:20.903Z,57.20
2019-03-13T14:42:56.273Z,57.80
2019-03-13T14:45:37.678Z,57.20
2019-03-13T14:48:12.034Z,57.20
2019-03-13T14:50:46.779Z,57.30
2019-03-13T14:53:21.296Z,57.30
2019-03-13T14:55:56.431Z,57.40
2019-03-13T14:58:31.105Z,57.40
2019-03-13T15:01:06.092Z,57.40
2019-03-13T15:03:41.474Z,57.50
2019-03-13T15:06:16.369Z,57.60
2019-03-13T15:08:50.946Z,57.70
2019-03-13T15:11:25.814Z,57.80
2019-03-13T15:14:00.683Z,57.70
2019-03-13T15:16:35.396Z,57.80
2019-03-13T15:19:10.335Z,57.70
2019-03-13T15:21:45.543Z,57.80
2019-03-13T15:24:20.722Z,58.10
2019-03-13T15:26:55.758Z,57.70
2019-03-13T15:29:30.429Z,57.70
2019-03-13T15:32:05.590Z,57.70
2019-03-13T15:34:41.478Z,57.60
2019-03-13T15:37:16.264Z,57.50
2019-03-13T15:39:50.637Z,57.20
2019-03-13T15:42:25.588Z,57.20
2019-03-13T15:44:59.740Z,57.10
2019-03-13T15:47:34.648Z,57.10
2019-03-13T15:50:09.857Z,57.00
2019-03-13T15:52:44.719Z,57.00
2019-03-13T15:55:19.688Z,57.00
2019-03-13T15:57:54.187Z,57.00
2019-03-13T16:00:28.952Z,56.90
2019-03-13T16:03:04.210Z,56.80
2019-03-13T16:05:40.901Z,56.80
2019-03-13T16:08:15.688Z,56.80
2019-03-13T16:10:50.345Z,56.70
2019-03-13T16:13:25.395Z,56.70
2019-03-13T16:16:00.252Z,56.70
2019-03-13T16:18:35.402Z,56.70
2019-03-13T16:21:10.270Z,56.50
2019-03-13T16:23:45.279Z,56.40
2019-03-13T16:26:19.192Z,56.20
2019-03-13T16:28:53.961Z,56.10
2019-03-13T16:31:29.895Z,56.00
2019-03-13T16:34:04.500Z,55.90
2019-03-13T16:36:39.416Z,55.80
2019-03-13T16:39:14.137Z,55.70
2019-03-13T16:41:49.034Z,55.80
2019-03-13T16:44:23.562Z,55.80
2019-03-13T16:46:58.131Z,55.70
2019-03-13T16:49:33.345Z,55.70
2019-03-13T16:52:07.556Z,55.70
2019-03-13T16:54:41.917Z,55.80
2019-03-13T16:57:17.735Z,55.80
2019-03-13T17:00:00.635Z,55.90
2019-03-13T17:02:29.127Z,55.90
2019-03-13T17:05:03.692Z,55.90
2019-03-13T17:07:38.165Z,55.90
2019-03-13T17:10:16.005Z,55.90
2019-03-13T17:12:50.747Z,55.90
2019-03-13T17:15:26.543Z,55.90
2019-03-13T17:18:01.314Z,56.00
2019-03-13T17:20:36.123Z,56.00
2019-03-13T17:23:10.671Z,56.00
2019-03-13T17:25:45.944Z,56.00
2019-03-13T17:28:20.517Z,56.10
2019-03-13T17:30:55.352Z,56.10
2019-03-13T17:33:30.365Z,56.20
2019-03-13T17:36:06.486Z,56.20
2019-03-13T17:38:41.158Z,56.10
2019-03-13T17:41:16.269Z,56.10
2019-03-13T17:43:50.870Z,56.20
2019-03-13T17:46:25.773Z,56.20
2019-03-13T17:49:00.644Z,56.30
2019-03-13T17:51:35.439Z,56.20
2019-03-13T17:54:10.727Z,56.20
2019-03-13T17:56:45.893Z,56.30
2019-03-13T17:59:21.710Z,56.30
2019-03-13T18:01:56.242Z,56.30
2019-03-13T18:04:31.054Z,56.30
2019-03-13T18:07:06.223Z,56.40
2019-03-13T18:09:40.559Z,56.40
2019-03-13T18:12:15.464Z,56.40
2019-03-13T18:14:50.095Z,56.50
2019-03-13T18:17:24.953Z,56.50
2019-03-13T18:19:59.961Z,56.60
2019-03-13T18:22:34.627Z,56.60
2019-03-13T18:25:08.923Z,56.60
2019-03-13T18:27:43.559Z,56.60
2019-03-13T18:30:23.528Z,56.70
2019-03-13T18:32:57.947Z,56.70
2019-03-13T18:35:40.349Z,56.70
2019-03-13T18:38:15.463Z,56.80
2019-03-13T18:40:50.538Z,56.80
2019-03-13T18:43:25.021Z,56.80
2019-03-13T18:46:00.003Z,56.90
2019-03-13T18:48:34.350Z,56.90
2019-03-13T18:51:09.246Z,57.40
2019-03-13T18:53:43.782Z,56.90
2019-03-13T18:56:18.896Z,56.90
2019-03-13T18:58:53.276Z,57.00
2019-03-13T19:01:28.954Z,57.00
2019-03-13T19:04:03.897Z,57.50
2019-03-13T19:06:38.579Z,57.10
2019-03-13T19:09:13.153Z,57.20
2019-03-13T19:11:55.951Z,57.20
2019-03-13T19:14:30.904Z,57.30
2019-03-13T19:17:05.414Z,57.30
2019-03-13T19:19:40.177Z,57.30
2019-03-13T19:22:15.027Z,57.40
2019-03-13T19:24:56.954Z,57.40
2019-03-13T19:27:31.720Z,57.50
2019-03-13T19:30:13.675Z,57.50
2019-03-13T19:32:48.002Z,57.50
2019-03-13T19:35:29.439Z,57.60
2019-03-13T19:38:05.507Z,57.60
2019-03-13T19:40:40.696Z,57.70
2019-03-13T19:43:14.824Z,57.70
2019-03-13T19:45:49.884Z,57.80
2019-03-13T19:48:25.131Z,57.80
2019-03-13T19:51:00.118Z,57.90
2019-03-13T19:53:34.921Z,57.90
2019-03-13T19:56:16.160Z,57.90
2019-03-13T19:58:50.475Z,57.90
2019-03-13T20:01:25.875Z,57.90
2019-03-13T20:04:00.787Z,58.00
2019-03-13T20:06:42.628Z,58.00
2019-03-13T20:09:17.141Z,58.00
2019-03-13T20:11:52.003Z,58.00
2019-03-13T20:14:26.504Z,58.10
2019-03-13T20:17:08.548Z,58.20
2019-03-13T20:19:43.811Z,58.20
2019-03-13T20:22:18.511Z,58.20
2019-03-13T20:24:53.399Z,58.20
2019-03-13T20:27:27.851Z,58.20
2019-03-13T20:30:02.721Z,59.00
2019-03-13T20:32:37.862Z,58.30
2019-03-13T20:35:20.137Z,59.00
2019-03-13T20:37:54.784Z,58.70
2019-03-13T20:40:30.687Z,58.40
2019-03-13T20:43:05.342Z,58.30
2019-03-13T20:45:39.723Z,58.40
2019-03-13T20:48:14.606Z,58.50
2019-03-13T20:50:49.564Z,58.40
2019-03-13T20:53:24.244Z,58.50
2019-03-13T20:56:09.110Z,58.50
2019-03-13T20:58:43.893Z,58.60
2019-03-13T21:01:25.513Z,58.60
2019-03-13T21:04:00.980Z,58.60
2019-03-13T21:06:35.403Z,58.50
2019-03-13T21:09:10.451Z,58.70
2019-03-13T21:11:45.179Z,58.60
2019-03-13T21:14:19.972Z,58.70
2019-03-13T21:16:54.511Z,58.80
2019-03-13T21:19:29.475Z,58.70
2019-03-13T21:22:04.732Z,58.80
2019-03-13T21:24:39.681Z,58.80
2019-03-13T21:27:14.528Z,58.80
2019-03-13T21:29:49.839Z,58.70
2019-03-13T21:32:24.226Z,58.80
2019-03-13T21:34:59.179Z,58.80
2019-03-13T21:37:41.535Z,58.90
2019-03-13T21:40:17.054Z,58.90
2019-03-13T21:42:54.444Z,58.90
2019-03-13T21:45:40.439Z,58.90
2019-03-13T21:48:05.179Z,59.00
2019-03-13T21:50:39.993Z,59.00
2019-03-13T21:53:14.832Z,59.30
2019-03-13T21:55:50.062Z,59.00
2019-03-13T21:58:31.084Z,59.00
2019-03-13T22:01:05.692Z,59.00
2019-03-13T22:03:40.453Z,59.00
2019-03-13T22:06:28.005Z,59.00
2019-03-13T22:08:52.726Z,59.10
2019-03-13T22:11:27.293Z,59.20
2019-03-13T22:14:02.079Z,59.10
2019-03-13T22:16:36.636Z,59.10
2019-03-13T22:19:11.126Z,59.10
2019-03-13T22:21:52.982Z,59.10
2019-03-13T22:24:28.035Z,59.00
2019-03-13T22:27:06.232Z,59.10
2019-03-13T22:29:41.108Z,59.50
2019-03-13T22:32:16.909Z,59.10
2019-03-13T22:34:52.035Z,59.10
2019-03-13T22:37:33.806Z,59.10
2019-03-13T22:40:08.991Z,59.20
2019-03-13T22:42:44.982Z,59.20
2019-03-13T22:45:19.770Z,59.30
2019-03-13T22:47:54.119Z,59.30
2019-03-13T22:50:29.136Z,59.40
2019-03-13T22:53:04.114Z,59.40
2019-03-13T22:55:41.030Z,59.40
2019-03-13T22:58:15.654Z,59.50
2019-03-13T23:01:14.405Z,60.10
2019-03-13T23:03:49.385Z,59.40
2019-03-13T23:06:24.660Z,59.50
2019-03-13T23:08:59.527Z,59.50
2019-03-13T23:11:34.849Z,59.60
2019-03-13T23:14:10.104Z,59.60
2019-03-13T23:16:44.475Z,59.60
2019-03-13T23:19:19.407Z,59.70
2019-03-13T23:21:54.273Z,59.70
2019-03-13T23:24:28.832Z,59.70
2019-03-13T23:27:03.738Z,59.70
2019-03-13T23:29:38.470Z,59.70
2019-03-13T23:32:12.973Z,59.70
2019-03-13T23:34:47.871Z,59.70
2019-03-13T23:37:22.657Z,59.60
2019-03-13T23:39:57.551Z,59.70
2019-03-13T23:42:32.682Z,59.70
2019-03-13T23:45:07.885Z,59.70
2019-03-13T23:47:43.060Z,59.80
2019-03-13T23:50:17.128Z,59.80
2019-03-13T23:52:52.065Z,60.00
2019-03-13T23:55:26.640Z,60.10
2019-03-13T23:58:01.381Z,60.10
